sensor_id;sensor_type;location;lat;lon;timestamp;P1;durP1;ratioP1;P2;durP2;ratioP2
41739;SDS011;27422;52.444;13.300;2023-03-23T00:00:43;2.17;;;1.00;;
41739;SDS011;27422;52.444;13.300;2023-03-23T00:03:09;2.45;;;1.10;;
41739;SDS011;27422;52.444;13.300;2023-03-23T00:05:34;2.05;;;1.00;;
41739;SDS011;27422;52.444;13.300;2023-03-23T00:08:02;4.30;;;1.10;;
41739;SDS011;27422;52.444;13.300;2023-03-23T00:10:28;3.00;;;1.17;;
41739;SDS011;27422;52.444;13.300;2023-03-23T00:12:58;2.47;;;1.10;;
41739;SDS011;27422;52.444;13.300;2023-03-23T00:15:27;2.63;;;1.00;;
41739;SDS011;27422;52.444;13.300;2023-03-23T00:17:55;3.42;;;1.10;;
41739;SDS011;27422;52.444;13.300;2023-03-23T00:20:28;2.15;;;1.00;;
41739;SDS011;27422;52.444;13.300;2023-03-23T00:23:04;2.65;;;1.15;;
41739;SDS011;27422;52.444;13.300;2023-03-23T00:25:31;3.17;;;1.00;;
41739;SDS011;27422;52.444;13.300;2023-03-23T00:27:57;2.28;;;1.15;;
41739;SDS011;27422;52.444;13.300;2023-03-23T00:30:22;2.03;;;1.00;;
41739;SDS011;27422;52.444;13.300;2023-03-23T00:32:47;2.42;;;1.10;;
41739;SDS011;27422;52.444;13.300;2023-03-23T00:35:13;3.53;;;1.33;;
41739;SDS011;27422;52.444;13.300;2023-03-23T00:37:38;1.73;;;0.93;;
41739;SDS011;27422;52.444;13.300;2023-03-23T00:40:04;2.08;;;1.15;;
41739;SDS011;27422;52.444;13.300;2023-03-23T00:42:34;3.22;;;1.20;;
41739;SDS011;27422;52.444;13.300;2023-03-23T00:47:29;2.30;;;1.00;;
41739;SDS011;27422;52.444;13.300;2023-03-23T00:49:55;3.90;;;1.20;;
41739;SDS011;27422;52.444;13.300;2023-03-23T00:52:21;3.95;;;1.20;;
41739;SDS011;27422;52.444;13.300;2023-03-23T00:54:47;2.40;;;1.00;;
41739;SDS011;27422;52.444;13.300;2023-03-23T00:57:12;3.17;;;1.30;;
41739;SDS011;27422;52.444;13.300;2023-03-23T00:59:37;2.75;;;1.02;;
41739;SDS011;27422;52.444;13.300;2023-03-23T01:02:03;2.33;;;0.98;;
41739;SDS011;27422;52.444;13.300;2023-03-23T01:04:28;3.55;;;1.20;;
41739;SDS011;27422;52.444;13.300;2023-03-23T01:09:21;3.60;;;1.33;;
41739;SDS011;27422;52.444;13.300;2023-03-23T01:11:48;3.45;;;1.15;;
41739;SDS011;27422;52.444;13.300;2023-03-23T01:14:16;2.45;;;1.15;;
41739;SDS011;27422;52.444;13.300;2023-03-23T01:16:43;3.75;;;1.27;;
41739;SDS011;27422;52.444;13.300;2023-03-23T01:19:08;3.15;;;1.10;;
41739;SDS011;27422;52.444;13.300;2023-03-23T01:21:34;2.83;;;1.40;;
41739;SDS011;27422;52.444;13.300;2023-03-23T01:24:00;3.53;;;1.00;;
41739;SDS011;27422;52.444;13.300;2023-03-23T01:26:26;3.22;;;1.23;;
41739;SDS011;27422;52.444;13.300;2023-03-23T01:28:52;3.05;;;1.30;;
41739;SDS011;27422;52.444;13.300;2023-03-23T01:31:19;2.88;;;1.25;;
41739;SDS011;27422;52.444;13.300;2023-03-23T01:36:12;3.45;;;1.20;;
41739;SDS011;27422;52.444;13.300;2023-03-23T01:38:43;4.97;;;1.40;;
41739;SDS011;27422;52.444;13.300;2023-03-23T01:41:09;2.65;;;1.45;;
41739;SDS011;27422;52.444;13.300;2023-03-23T01:43:36;4.00;;;1.23;;
41739;SDS011;27422;52.444;13.300;2023-03-23T01:46:01;2.67;;;1.15;;
41739;SDS011;27422;52.444;13.300;2023-03-23T01:48:33;2.50;;;1.10;;
41739;SDS011;27422;52.444;13.300;2023-03-23T01:51:12;2.40;;;1.15;;
41739;SDS011;27422;52.444;13.300;2023-03-23T01:56:06;5.55;;;1.50;;
41739;SDS011;27422;52.444;13.300;2023-03-23T01:58:33;2.78;;;1.13;;
41739;SDS011;27422;52.444;13.300;2023-03-23T02:01:02;5.43;;;1.42;;
41739;SDS011;27422;52.444;13.300;2023-03-23T02:03:29;3.47;;;1.27;;
41739;SDS011;27422;52.444;13.300;2023-03-23T02:05:56;3.50;;;1.60;;
41739;SDS011;27422;52.444;13.300;2023-03-23T02:08:23;3.88;;;1.38;;
41739;SDS011;27422;52.444;13.300;2023-03-23T02:10:49;2.40;;;1.10;;
41739;SDS011;27422;52.444;13.300;2023-03-23T02:13:15;2.80;;;1.27;;
41739;SDS011;27422;52.444;13.300;2023-03-23T02:15:54;2.30;;;1.10;;
41739;SDS011;27422;52.444;13.300;2023-03-23T02:35:39;2.72;;;1.27;;
41739;SDS011;27422;52.444;13.300;2023-03-23T02:38:20;2.47;;;1.05;;
41739;SDS011;27422;52.444;13.300;2023-03-23T02:40:49;2.47;;;1.23;;
41739;SDS011;27422;52.444;13.300;2023-03-23T02:43:16;2.92;;;1.25;;
41739;SDS011;27422;52.444;13.300;2023-03-23T02:45:45;2.53;;;1.20;;
41739;SDS011;27422;52.444;13.300;2023-03-23T02:48:12;3.30;;;1.20;;
41739;SDS011;27422;52.444;13.300;2023-03-23T02:50:39;2.65;;;1.30;;
41739;SDS011;27422;52.444;13.300;2023-03-23T02:53:07;3.72;;;1.63;;
41739;SDS011;27422;52.444;13.300;2023-03-23T02:55:36;3.20;;;1.50;;
41739;SDS011;27422;52.444;13.300;2023-03-23T02:58:05;2.78;;;1.25;;
41739;SDS011;27422;52.444;13.300;2023-03-23T03:00:31;3.10;;;1.33;;
41739;SDS011;27422;52.444;13.300;2023-03-23T03:02:56;2.85;;;1.30;;
41739;SDS011;27422;52.444;13.300;2023-03-23T03:05:26;2.50;;;1.15;;
41739;SDS011;27422;52.444;13.300;2023-03-23T03:10:40;3.75;;;1.40;;
41739;SDS011;27422;52.444;13.300;2023-03-23T03:15:58;2.80;;;1.33;;
41739;SDS011;27422;52.444;13.300;2023-03-23T03:18:30;3.03;;;1.17;;
41739;SDS011;27422;52.444;13.300;2023-03-23T03:20:59;3.20;;;1.30;;
41739;SDS011;27422;52.444;13.300;2023-03-23T03:23:28;2.25;;;1.10;;
41739;SDS011;27422;52.444;13.300;2023-03-23T03:25:54;3.50;;;1.60;;
41739;SDS011;27422;52.444;13.300;2023-03-23T03:28:22;2.55;;;1.35;;
41739;SDS011;27422;52.444;13.300;2023-03-23T03:30:53;4.60;;;1.25;;
41739;SDS011;27422;52.444;13.300;2023-03-23T03:33:20;2.55;;;1.30;;
41739;SDS011;27422;52.444;13.300;2023-03-23T03:35:50;3.28;;;1.27;;
41739;SDS011;27422;52.444;13.300;2023-03-23T03:38:17;3.53;;;1.40;;
41739;SDS011;27422;52.444;13.300;2023-03-23T03:40:42;4.57;;;1.30;;
41739;SDS011;27422;52.444;13.300;2023-03-23T03:43:08;4.18;;;1.30;;
41739;SDS011;27422;52.444;13.300;2023-03-23T03:45:33;3.35;;;1.27;;
41739;SDS011;27422;52.444;13.300;2023-03-23T03:47:58;3.53;;;1.17;;
41739;SDS011;27422;52.444;13.300;2023-03-23T03:50:25;2.95;;;1.20;;
41739;SDS011;27422;52.444;13.300;2023-03-23T03:52:51;4.97;;;1.27;;
41739;SDS011;27422;52.444;13.300;2023-03-23T03:55:17;2.63;;;1.17;;
41739;SDS011;27422;52.444;13.300;2023-03-23T03:57:43;3.50;;;1.27;;
41739;SDS011;27422;52.444;13.300;2023-03-23T04:00:09;4.28;;;1.52;;
41739;SDS011;27422;52.444;13.300;2023-03-23T04:02:43;3.03;;;1.33;;
41739;SDS011;27422;52.444;13.300;2023-03-23T04:05:12;3.30;;;1.17;;
41739;SDS011;27422;52.444;13.300;2023-03-23T04:07:38;2.78;;;1.30;;
41739;SDS011;27422;52.444;13.300;2023-03-23T04:10:06;3.55;;;1.27;;
41739;SDS011;27422;52.444;13.300;2023-03-23T04:12:33;3.58;;;1.40;;
41739;SDS011;27422;52.444;13.300;2023-03-23T04:14:59;3.05;;;1.50;;
41739;SDS011;27422;52.444;13.300;2023-03-23T04:17:25;3.20;;;1.13;;
41739;SDS011;27422;52.444;13.300;2023-03-23T04:19:54;2.38;;;0.95;;
41739;SDS011;27422;52.444;13.300;2023-03-23T04:22:25;2.45;;;1.20;;
41739;SDS011;27422;52.444;13.300;2023-03-23T04:24:55;2.78;;;1.17;;
41739;SDS011;27422;52.444;13.300;2023-03-23T04:27:24;3.08;;;1.33;;
41739;SDS011;27422;52.444;13.300;2023-03-23T04:29:50;2.45;;;1.10;;
41739;SDS011;27422;52.444;13.300;2023-03-23T04:32:15;3.30;;;1.30;;
41739;SDS011;27422;52.444;13.300;2023-03-23T04:34:43;2.95;;;1.50;;
41739;SDS011;27422;52.444;13.300;2023-03-23T04:37:09;3.22;;;1.35;;
41739;SDS011;27422;52.444;13.300;2023-03-23T04:39:34;3.22;;;1.25;;
41739;SDS011;27422;52.444;13.300;2023-03-23T04:42:00;2.83;;;1.40;;
41739;SDS011;27422;52.444;13.300;2023-03-23T04:44:26;3.13;;;1.40;;
41739;SDS011;27422;52.444;13.300;2023-03-23T04:46:52;2.97;;;1.42;;
41739;SDS011;27422;52.444;13.300;2023-03-23T04:49:19;3.28;;;1.60;;
41739;SDS011;27422;52.444;13.300;2023-03-23T04:51:46;2.80;;;1.38;;
41739;SDS011;27422;52.444;13.300;2023-03-23T04:54:12;3.63;;;1.50;;
41739;SDS011;27422;52.444;13.300;2023-03-23T04:56:37;3.35;;;1.60;;
41739;SDS011;27422;52.444;13.300;2023-03-23T04:59:03;2.97;;;1.40;;
41739;SDS011;27422;52.444;13.300;2023-03-23T05:01:31;3.83;;;1.65;;
41739;SDS011;27422;52.444;13.300;2023-03-23T05:03:56;3.90;;;1.60;;
41739;SDS011;27422;52.444;13.300;2023-03-23T05:06:22;4.50;;;2.13;;
41739;SDS011;27422;52.444;13.300;2023-03-23T05:08:48;4.35;;;2.00;;
41739;SDS011;27422;52.444;13.300;2023-03-23T05:11:13;4.00;;;1.80;;
41739;SDS011;27422;52.444;13.300;2023-03-23T05:13:38;4.60;;;1.90;;
41739;SDS011;27422;52.444;13.300;2023-03-23T05:16:04;3.40;;;1.80;;
41739;SDS011;27422;52.444;13.300;2023-03-23T05:18:30;3.60;;;1.60;;
41739;SDS011;27422;52.444;13.300;2023-03-23T05:21:00;3.10;;;1.77;;
41739;SDS011;27422;52.444;13.300;2023-03-23T05:23:26;3.80;;;1.90;;
41739;SDS011;27422;52.444;13.300;2023-03-23T05:25:55;3.22;;;1.58;;
41739;SDS011;27422;52.444;13.300;2023-03-23T05:28:22;3.22;;;1.73;;
41739;SDS011;27422;52.444;13.300;2023-03-23T05:30:47;3.15;;;1.67;;
41739;SDS011;27422;52.444;13.300;2023-03-23T05:33:13;2.65;;;1.27;;
41739;SDS011;27422;52.444;13.300;2023-03-23T05:35:38;4.28;;;1.70;;
41739;SDS011;27422;52.444;13.300;2023-03-23T05:38:04;3.45;;;1.50;;
41739;SDS011;27422;52.444;13.300;2023-03-23T05:40:29;4.18;;;1.80;;
41739;SDS011;27422;52.444;13.300;2023-03-23T05:42:55;3.38;;;1.40;;
41739;SDS011;27422;52.444;13.300;2023-03-23T05:45:23;3.00;;;1.50;;
41739;SDS011;27422;52.444;13.300;2023-03-23T05:47:49;2.72;;;1.40;;
41739;SDS011;27422;52.444;13.300;2023-03-23T05:50:14;3.45;;;1.42;;
41739;SDS011;27422;52.444;13.300;2023-03-23T05:52:40;3.92;;;1.45;;
41739;SDS011;27422;52.444;13.300;2023-03-23T05:55:06;4.75;;;1.60;;
41739;SDS011;27422;52.444;13.300;2023-03-23T05:57:33;3.72;;;1.55;;
41739;SDS011;27422;52.444;13.300;2023-03-23T05:59:58;3.78;;;1.30;;
41739;SDS011;27422;52.444;13.300;2023-03-23T06:02:24;3.15;;;1.50;;
41739;SDS011;27422;52.444;13.300;2023-03-23T06:04:53;4.07;;;1.13;;
41739;SDS011;27422;52.444;13.300;2023-03-23T06:07:22;4.72;;;1.60;;
41739;SDS011;27422;52.444;13.300;2023-03-23T06:09:49;5.28;;;1.77;;
41739;SDS011;27422;52.444;13.300;2023-03-23T06:12:15;3.53;;;1.50;;
41739;SDS011;27422;52.444;13.300;2023-03-23T06:14:45;2.97;;;1.30;;
41739;SDS011;27422;52.444;13.300;2023-03-23T06:17:11;3.30;;;1.15;;
41739;SDS011;27422;52.444;13.300;2023-03-23T06:19:37;3.42;;;1.27;;
41739;SDS011;27422;52.444;13.300;2023-03-23T06:22:02;3.22;;;1.25;;
41739;SDS011;27422;52.444;13.300;2023-03-23T06:24:28;3.25;;;1.40;;
41739;SDS011;27422;52.444;13.300;2023-03-23T06:26:54;4.03;;;1.42;;
41739;SDS011;27422;52.444;13.300;2023-03-23T06:29:20;4.95;;;1.20;;
41739;SDS011;27422;52.444;13.300;2023-03-23T06:31:49;3.80;;;1.42;;
41739;SDS011;27422;52.444;13.300;2023-03-23T06:34:19;2.72;;;1.15;;
41739;SDS011;27422;52.444;13.300;2023-03-23T06:36:44;3.05;;;1.35;;
41739;SDS011;27422;52.444;13.300;2023-03-23T06:39:09;3.45;;;1.27;;
41739;SDS011;27422;52.444;13.300;2023-03-23T06:41:35;4.55;;;1.60;;
41739;SDS011;27422;52.444;13.300;2023-03-23T06:44:00;3.30;;;1.60;;
41739;SDS011;27422;52.444;13.300;2023-03-23T06:46:26;4.55;;;1.50;;
41739;SDS011;27422;52.444;13.300;2023-03-23T06:48:52;3.70;;;1.40;;
41739;SDS011;27422;52.444;13.300;2023-03-23T06:51:18;3.50;;;1.35;;
41739;SDS011;27422;52.444;13.300;2023-03-23T06:53:44;3.50;;;1.27;;
41739;SDS011;27422;52.444;13.300;2023-03-23T06:56:09;4.18;;;1.85;;
41739;SDS011;27422;52.444;13.300;2023-03-23T06:58:36;3.63;;;1.43;;
41739;SDS011;27422;52.444;13.300;2023-03-23T07:01:02;2.35;;;1.20;;
41739;SDS011;27422;52.444;13.300;2023-03-23T07:03:28;3.05;;;1.42;;
41739;SDS011;27422;52.444;13.300;2023-03-23T07:05:54;3.72;;;1.48;;
41739;SDS011;27422;52.444;13.300;2023-03-23T07:08:20;4.50;;;1.67;;
41739;SDS011;27422;52.444;13.300;2023-03-23T07:10:46;4.35;;;1.60;;
41739;SDS011;27422;52.444;13.300;2023-03-23T07:13:12;4.80;;;1.50;;
41739;SDS011;27422;52.444;13.300;2023-03-23T07:15:38;3.58;;;1.10;;
41739;SDS011;27422;52.444;13.300;2023-03-23T07:18:04;3.25;;;1.50;;
41739;SDS011;27422;52.444;13.300;2023-03-23T07:20:30;3.45;;;1.48;;
41739;SDS011;27422;52.444;13.300;2023-03-23T07:22:55;3.53;;;1.70;;
41739;SDS011;27422;52.444;13.300;2023-03-23T07:25:21;3.22;;;1.48;;
41739;SDS011;27422;52.444;13.300;2023-03-23T07:27:46;6.18;;;1.50;;
41739;SDS011;27422;52.444;13.300;2023-03-23T07:30:12;3.08;;;1.55;;
41739;SDS011;27422;52.444;13.300;2023-03-23T07:32:39;5.72;;;1.83;;
41739;SDS011;27422;52.444;13.300;2023-03-23T07:35:05;3.97;;;1.42;;
41739;SDS011;27422;52.444;13.300;2023-03-23T07:37:31;4.18;;;1.83;;
41739;SDS011;27422;52.444;13.300;2023-03-23T07:39:57;4.93;;;1.80;;
41739;SDS011;27422;52.444;13.300;2023-03-23T07:42:22;5.40;;;1.52;;
41739;SDS011;27422;52.444;13.300;2023-03-23T07:44:48;3.47;;;1.67;;
41739;SDS011;27422;52.444;13.300;2023-03-23T07:47:13;8.82;;;2.10;;
41739;SDS011;27422;52.444;13.300;2023-03-23T07:49:38;2.80;;;1.30;;
41739;SDS011;27422;52.444;13.300;2023-03-23T07:52:04;3.95;;;1.75;;
41739;SDS011;27422;52.444;13.300;2023-03-23T07:54:31;3.30;;;1.70;;
41739;SDS011;27422;52.444;13.300;2023-03-23T07:56:56;4.28;;;1.33;;
41739;SDS011;27422;52.444;13.300;2023-03-23T07:59:21;3.53;;;1.60;;
41739;SDS011;27422;52.444;13.300;2023-03-23T08:01:47;4.03;;;1.88;;
41739;SDS011;27422;52.444;13.300;2023-03-23T08:04:12;3.83;;;1.60;;
41739;SDS011;27422;52.444;13.300;2023-03-23T08:06:38;4.35;;;1.70;;
41739;SDS011;27422;52.444;13.300;2023-03-23T08:09:06;4.10;;;1.75;;
41739;SDS011;27422;52.444;13.300;2023-03-23T08:11:36;3.10;;;1.45;;
41739;SDS011;27422;52.444;13.300;2023-03-23T08:14:02;3.45;;;1.52;;
41739;SDS011;27422;52.444;13.300;2023-03-23T08:16:28;4.30;;;1.70;;
41739;SDS011;27422;52.444;13.300;2023-03-23T08:18:53;3.55;;;1.83;;
41739;SDS011;27422;52.444;13.300;2023-03-23T08:21:18;3.92;;;1.60;;
41739;SDS011;27422;52.444;13.300;2023-03-23T08:23:45;5.35;;;1.77;;
41739;SDS011;27422;52.444;13.300;2023-03-23T08:26:11;3.67;;;1.80;;
41739;SDS011;27422;52.444;13.300;2023-03-23T08:28:36;3.65;;;1.70;;
41739;SDS011;27422;52.444;13.300;2023-03-23T08:31:06;3.45;;;1.70;;
41739;SDS011;27422;52.444;13.300;2023-03-23T08:33:33;4.95;;;1.75;;
41739;SDS011;27422;52.444;13.300;2023-03-23T08:35:59;4.78;;;1.50;;
41739;SDS011;27422;52.444;13.300;2023-03-23T08:38:26;3.28;;;1.77;;
41739;SDS011;27422;52.444;13.300;2023-03-23T08:40:56;3.70;;;1.80;;
41739;SDS011;27422;52.444;13.300;2023-03-23T08:43:23;4.53;;;2.03;;
41739;SDS011;27422;52.444;13.300;2023-03-23T08:45:49;4.38;;;1.48;;
41739;SDS011;27422;52.444;13.300;2023-03-23T08:48:14;4.18;;;1.58;;
41739;SDS011;27422;52.444;13.300;2023-03-23T08:50:40;3.00;;;1.33;;
41739;SDS011;27422;52.444;13.300;2023-03-23T08:53:05;3.58;;;1.50;;
41739;SDS011;27422;52.444;13.300;2023-03-23T08:55:32;4.95;;;1.42;;
41739;SDS011;27422;52.444;13.300;2023-03-23T08:57:57;2.90;;;1.30;;
41739;SDS011;27422;52.444;13.300;2023-03-23T09:00:23;2.80;;;1.30;;
41739;SDS011;27422;52.444;13.300;2023-03-23T09:02:52;3.28;;;1.40;;
41739;SDS011;27422;52.444;13.300;2023-03-23T09:05:19;4.10;;;1.60;;
41739;SDS011;27422;52.444;13.300;2023-03-23T09:07:47;2.75;;;1.30;;
41739;SDS011;27422;52.444;13.300;2023-03-23T09:10:14;3.53;;;1.25;;
41739;SDS011;27422;52.444;13.300;2023-03-23T09:12:41;3.03;;;1.10;;
41739;SDS011;27422;52.444;13.300;2023-03-23T09:15:08;4.23;;;1.20;;
41739;SDS011;27422;52.444;13.300;2023-03-23T09:17:35;3.08;;;1.25;;
41739;SDS011;27422;52.444;13.300;2023-03-23T09:20:03;2.90;;;1.30;;
41739;SDS011;27422;52.444;13.300;2023-03-23T09:22:35;3.65;;;1.30;;
41739;SDS011;27422;52.444;13.300;2023-03-23T09:25:00;3.33;;;1.30;;
41739;SDS011;27422;52.444;13.300;2023-03-23T09:27:26;3.08;;;1.10;;
41739;SDS011;27422;52.444;13.300;2023-03-23T09:29:52;2.40;;;1.10;;
41739;SDS011;27422;52.444;13.300;2023-03-23T09:32:17;3.10;;;1.17;;
41739;SDS011;27422;52.444;13.300;2023-03-23T09:34:45;2.10;;;1.00;;
41739;SDS011;27422;52.444;13.300;2023-03-23T09:37:10;3.05;;;1.23;;
41739;SDS011;27422;52.444;13.300;2023-03-23T09:39:38;2.25;;;0.90;;
41739;SDS011;27422;52.444;13.300;2023-03-23T09:50:16;3.65;;;1.05;;
41739;SDS011;27422;52.444;13.300;2023-03-23T09:55:18;1.77;;;0.85;;
41739;SDS011;27422;52.444;13.300;2023-03-23T10:00:36;2.92;;;0.80;;
41739;SDS011;27422;52.444;13.300;2023-03-23T10:03:05;2.03;;;0.70;;
41739;SDS011;27422;52.444;13.300;2023-03-23T10:05:38;3.03;;;0.93;;
41739;SDS011;27422;52.444;13.300;2023-03-23T10:08:14;3.17;;;0.90;;
41739;SDS011;27422;52.444;13.300;2023-03-23T10:16:25;2.55;;;0.90;;
41739;SDS011;27422;52.444;13.300;2023-03-23T10:18:56;2.53;;;0.85;;
41739;SDS011;27422;52.444;13.300;2023-03-23T10:21:23;1.60;;;0.73;;
41739;SDS011;27422;52.444;13.300;2023-03-23T10:23:53;1.92;;;0.60;;
41739;SDS011;27422;52.444;13.300;2023-03-23T10:29:15;2.03;;;0.70;;
41739;SDS011;27422;52.444;13.300;2023-03-23T10:34:31;2.53;;;0.90;;
41739;SDS011;27422;52.444;13.300;2023-03-23T10:37:14;2.42;;;0.75;;
41739;SDS011;27422;52.444;13.300;2023-03-23T10:39:43;2.22;;;1.05;;
41739;SDS011;27422;52.444;13.300;2023-03-23T10:42:20;3.15;;;0.90;;
41739;SDS011;27422;52.444;13.300;2023-03-23T10:44:47;5.05;;;0.80;;
41739;SDS011;27422;52.444;13.300;2023-03-23T10:47:13;1.58;;;0.60;;
41739;SDS011;27422;52.444;13.300;2023-03-23T10:49:41;2.57;;;0.70;;
41739;SDS011;27422;52.444;13.300;2023-03-23T10:55:16;1.90;;;0.80;;
41739;SDS011;27422;52.444;13.300;2023-03-23T10:57:43;2.63;;;0.80;;
41739;SDS011;27422;52.444;13.300;2023-03-23T11:00:24;2.17;;;0.80;;
41739;SDS011;27422;52.444;13.300;2023-03-23T11:02:57;2.05;;;0.80;;
41739;SDS011;27422;52.444;13.300;2023-03-23T11:05:41;3.58;;;1.10;;
41739;SDS011;27422;52.444;13.300;2023-03-23T11:08:12;2.25;;;0.82;;
41739;SDS011;27422;52.444;13.300;2023-03-23T11:10:47;2.20;;;0.80;;
41739;SDS011;27422;52.444;13.300;2023-03-23T11:13:18;2.10;;;0.73;;
41739;SDS011;27422;52.444;13.300;2023-03-23T11:15:45;2.20;;;0.80;;
41739;SDS011;27422;52.444;13.300;2023-03-23T11:21:12;2.17;;;0.80;;
41739;SDS011;27422;52.444;13.300;2023-03-23T11:23:40;2.07;;;0.87;;
41739;SDS011;27422;52.444;13.300;2023-03-23T11:31:24;2.47;;;1.00;;
41739;SDS011;27422;52.444;13.300;2023-03-23T11:34:04;2.47;;;1.08;;
41739;SDS011;27422;52.444;13.300;2023-03-23T11:36:34;2.90;;;0.90;;
41739;SDS011;27422;52.444;13.300;2023-03-23T11:39:02;3.10;;;0.85;;
41739;SDS011;27422;52.444;13.300;2023-03-23T11:41:31;1.25;;;0.60;;
41739;SDS011;27422;52.444;13.300;2023-03-23T11:44:02;3.13;;;0.80;;
41739;SDS011;27422;52.444;13.300;2023-03-23T11:46:45;2.53;;;0.75;;
41739;SDS011;27422;52.444;13.300;2023-03-23T11:52:16;2.00;;;0.80;;
41739;SDS011;27422;52.444;13.300;2023-03-23T11:54:49;2.05;;;0.80;;
41739;SDS011;27422;52.444;13.300;2023-03-23T11:57:17;2.28;;;0.90;;
41739;SDS011;27422;52.444;13.300;2023-03-23T11:59:43;2.28;;;0.98;;
41739;SDS011;27422;52.444;13.300;2023-03-23T12:02:32;1.63;;;0.70;;
41739;SDS011;27422;52.444;13.300;2023-03-23T12:19:06;2.25;;;0.80;;
41739;SDS011;27422;52.444;13.300;2023-03-23T12:24:43;2.28;;;0.88;;
41739;SDS011;27422;52.444;13.300;2023-03-23T12:32:58;2.05;;;0.77;;
41739;SDS011;27422;52.444;13.300;2023-03-23T12:41:36;3.58;;;0.82;;
41739;SDS011;27422;52.444;13.300;2023-03-23T12:49:48;2.40;;;1.10;;
41739;SDS011;27422;52.444;13.300;2023-03-23T12:52:23;2.42;;;0.65;;
41739;SDS011;27422;52.444;13.300;2023-03-23T13:00:52;3.28;;;1.05;;
41739;SDS011;27422;52.444;13.300;2023-03-23T13:03:30;2.67;;;0.57;;
41739;SDS011;27422;52.444;13.300;2023-03-23T13:06:05;2.10;;;0.70;;
41739;SDS011;27422;52.444;13.300;2023-03-23T13:08:46;3.53;;;0.98;;
41739;SDS011;27422;52.444;13.300;2023-03-23T13:11:20;2.40;;;0.75;;
41739;SDS011;27422;52.444;13.300;2023-03-23T13:13:51;1.85;;;0.60;;
41739;SDS011;27422;52.444;13.300;2023-03-23T13:16:29;2.20;;;0.80;;
41739;SDS011;27422;52.444;13.300;2023-03-23T13:22:11;1.80;;;0.70;;
41739;SDS011;27422;52.444;13.300;2023-03-23T13:24:44;2.75;;;0.85;;
41739;SDS011;27422;52.444;13.300;2023-03-23T13:27:15;2.60;;;0.90;;
41739;SDS011;27422;52.444;13.300;2023-03-23T13:29:45;2.60;;;0.93;;
41739;SDS011;27422;52.444;13.300;2023-03-23T13:32:20;2.63;;;1.00;;
41739;SDS011;27422;52.444;13.300;2023-03-23T13:34:46;3.05;;;1.10;;
41739;SDS011;27422;52.444;13.300;2023-03-23T13:42:49;3.30;;;0.70;;
41739;SDS011;27422;52.444;13.300;2023-03-23T13:47:42;3.45;;;0.90;;
41739;SDS011;27422;52.444;13.300;2023-03-23T14:10:35;1.50;;;0.60;;
41739;SDS011;27422;52.444;13.300;2023-03-23T14:13:36;1.85;;;0.65;;
41739;SDS011;27422;52.444;13.300;2023-03-23T14:16:22;2.72;;;0.73;;
41739;SDS011;27422;52.444;13.300;2023-03-23T14:18:59;1.77;;;0.60;;
41739;SDS011;27422;52.444;13.300;2023-03-23T14:21:30;2.38;;;0.77;;
41739;SDS011;27422;52.444;13.300;2023-03-23T14:23:59;3.08;;;0.88;;
41739;SDS011;27422;52.444;13.300;2023-03-23T14:29:01;2.33;;;1.02;;
41739;SDS011;27422;52.444;13.300;2023-03-23T14:31:28;1.83;;;0.70;;
41739;SDS011;27422;52.444;13.300;2023-03-23T14:33:54;2.10;;;0.70;;
41739;SDS011;27422;52.444;13.300;2023-03-23T14:36:22;1.98;;;0.77;;
41739;SDS011;27422;52.444;13.300;2023-03-23T14:38:54;3.23;;;0.90;;
41739;SDS011;27422;52.444;13.300;2023-03-23T14:41:22;3.00;;;0.88;;
41739;SDS011;27422;52.444;13.300;2023-03-23T14:43:47;3.10;;;0.82;;
41739;SDS011;27422;52.444;13.300;2023-03-23T14:46:13;3.40;;;1.00;;
41739;SDS011;27422;52.444;13.300;2023-03-23T14:48:39;2.20;;;0.80;;
41739;SDS011;27422;52.444;13.300;2023-03-23T14:51:14;3.45;;;1.00;;
41739;SDS011;27422;52.444;13.300;2023-03-23T14:53:43;2.53;;;0.90;;
41739;SDS011;27422;52.444;13.300;2023-03-23T14:56:11;2.42;;;0.80;;
41739;SDS011;27422;52.444;13.300;2023-03-23T14:58:38;4.40;;;0.95;;
41739;SDS011;27422;52.444;13.300;2023-03-23T15:01:08;2.50;;;0.70;;
41739;SDS011;27422;52.444;13.300;2023-03-23T15:03:49;3.00;;;0.77;;
41739;SDS011;27422;52.444;13.300;2023-03-23T15:06:36;2.35;;;0.80;;
41739;SDS011;27422;52.444;13.300;2023-03-23T15:09:13;2.20;;;0.90;;
41739;SDS011;27422;52.444;13.300;2023-03-23T15:11:49;2.45;;;1.20;;
41739;SDS011;27422;52.444;13.300;2023-03-23T15:14:19;1.83;;;0.75;;
41739;SDS011;27422;52.444;13.300;2023-03-23T15:16:48;2.05;;;0.80;;
41739;SDS011;27422;52.444;13.300;2023-03-23T15:19:16;2.17;;;0.80;;
41739;SDS011;27422;52.444;13.300;2023-03-23T15:26:50;4.53;;;0.70;;
41739;SDS011;27422;52.444;13.300;2023-03-23T15:29:20;2.50;;;0.90;;
41739;SDS011;27422;52.444;13.300;2023-03-23T15:31:49;1.92;;;0.77;;
41739;SDS011;27422;52.444;13.300;2023-03-23T15:34:24;2.22;;;0.70;;
41739;SDS011;27422;52.444;13.300;2023-03-23T15:36:59;2.00;;;0.55;;
41739;SDS011;27422;52.444;13.300;2023-03-23T15:39:29;2.10;;;0.80;;
41739;SDS011;27422;52.444;13.300;2023-03-23T15:41:56;1.88;;;0.65;;
41739;SDS011;27422;52.444;13.300;2023-03-23T15:44:24;2.40;;;0.82;;
41739;SDS011;27422;52.444;13.300;2023-03-23T15:47:34;1.75;;;0.50;;
41739;SDS011;27422;52.444;13.300;2023-03-23T15:49:42;1.45;;;0.57;;
41739;SDS011;27422;52.444;13.300;2023-03-23T15:52:09;2.17;;;0.60;;
41739;SDS011;27422;52.444;13.300;2023-03-23T15:54:45;3.13;;;0.80;;
41739;SDS011;27422;52.444;13.300;2023-03-23T15:57:12;1.80;;;0.60;;
41739;SDS011;27422;52.444;13.300;2023-03-23T15:59:37;1.63;;;0.60;;
41739;SDS011;27422;52.444;13.300;2023-03-23T16:02:03;2.17;;;0.80;;
41739;SDS011;27422;52.444;13.300;2023-03-23T16:04:28;2.85;;;0.70;;
41739;SDS011;27422;52.444;13.300;2023-03-23T16:06:55;3.03;;;0.85;;
41739;SDS011;27422;52.444;13.300;2023-03-23T16:09:21;2.63;;;0.80;;
41739;SDS011;27422;52.444;13.300;2023-03-23T16:11:46;2.67;;;0.60;;
41739;SDS011;27422;52.444;13.300;2023-03-23T16:14:12;3.95;;;0.70;;
41739;SDS011;27422;52.444;13.300;2023-03-23T16:16:38;3.38;;;0.70;;
41739;SDS011;27422;52.444;13.300;2023-03-23T16:19:12;3.20;;;0.50;;
41739;SDS011;27422;52.444;13.300;2023-03-23T16:21:39;1.88;;;0.60;;
41739;SDS011;27422;52.444;13.300;2023-03-23T16:24:05;1.58;;;0.65;;
41739;SDS011;27422;52.444;13.300;2023-03-23T16:26:32;2.70;;;0.80;;
41739;SDS011;27422;52.444;13.300;2023-03-23T16:28:57;3.13;;;0.70;;
41739;SDS011;27422;52.444;13.300;2023-03-23T16:31:23;1.95;;;0.60;;
41739;SDS011;27422;52.444;13.300;2023-03-23T16:33:49;2.65;;;0.80;;
41739;SDS011;27422;52.444;13.300;2023-03-23T16:36:14;2.30;;;0.60;;
41739;SDS011;27422;52.444;13.300;2023-03-23T16:38:40;2.28;;;0.60;;
41739;SDS011;27422;52.444;13.300;2023-03-23T16:41:06;2.50;;;0.73;;
41739;SDS011;27422;52.444;13.300;2023-03-23T16:43:32;2.92;;;0.70;;
41739;SDS011;27422;52.444;13.300;2023-03-23T16:45:58;4.22;;;0.95;;
41739;SDS011;27422;52.444;13.300;2023-03-23T16:48:23;3.97;;;1.08;;
41739;SDS011;27422;52.444;13.300;2023-03-23T16:50:49;1.50;;;0.60;;
41739;SDS011;27422;52.444;13.300;2023-03-23T16:53:15;3.15;;;1.00;;
41739;SDS011;27422;52.444;13.300;2023-03-23T16:55:40;2.58;;;0.90;;
41739;SDS011;27422;52.444;13.300;2023-03-23T16:58:11;2.13;;;0.70;;
41739;SDS011;27422;52.444;13.300;2023-03-23T17:00:37;2.40;;;0.60;;
41739;SDS011;27422;52.444;13.300;2023-03-23T17:03:04;1.95;;;0.80;;
41739;SDS011;27422;52.444;13.300;2023-03-23T17:05:30;3.58;;;1.10;;
41739;SDS011;27422;52.444;13.300;2023-03-23T17:07:56;3.35;;;0.77;;
41739;SDS011;27422;52.444;13.300;2023-03-23T17:10:25;2.60;;;0.70;;